createdAt,value
2017-12-12T00:00:19.099Z,978.1
2017-12-12T00:01:21.605Z,978.1
2017-12-12T00:02:23.014Z,978.1
2017-12-12T00:03:24.489Z,978.1
2017-12-12T00:04:25.882Z,978.1
2017-12-12T00:05:27.369Z,978.2
2017-12-12T00:06:28.762Z,978.3
2017-12-12T00:07:30.164Z,978.3
2017-12-12T00:08:31.589Z,978.4
2017-12-12T00:09:32.985Z,978.4
2017-12-12T00:10:34.402Z,978.4
2017-12-12T00:11:35.914Z,978.5
2017-12-12T00:12:37.304Z,978.5
2017-12-12T00:13:38.703Z,978.6
2017-12-12T00:14:40.128Z,978.6
2017-12-12T00:15:41.561Z,978.7
2017-12-12T00:16:42.961Z,978.7
2017-12-12T00:17:44.473Z,978.8
2017-12-12T00:18:45.869Z,978.9
2017-12-12T00:19:47.265Z,978.9
2017-12-12T00:20:48.772Z,979.0
2017-12-12T00:21:50.166Z,979.0
2017-12-12T00:22:51.563Z,979.1
2017-12-12T00:23:54.012Z,979.2
2017-12-12T00:24:55.429Z,979.2
2017-12-12T00:25:56.825Z,979.2
2017-12-12T00:26:58.331Z,979.4
2017-12-12T00:27:59.731Z,979.3
2017-12-12T00:29:01.130Z,979.4
2017-12-12T00:30:02.550Z,979.4
2017-12-12T00:31:03.949Z,979.5
2017-12-12T00:32:05.343Z,979.5
2017-12-12T00:33:06.768Z,979.5
2017-12-12T00:34:08.165Z,979.5
2017-12-12T00:35:09.562Z,979.6
2017-12-12T00:36:10.988Z,979.7
2017-12-12T00:37:12.432Z,979.7
2017-12-12T00:38:13.814Z,979.8
2017-12-12T00:39:15.309Z,979.8
2017-12-12T00:40:16.707Z,979.9
2017-12-12T00:41:18.101Z,979.9
2017-12-12T00:42:19.527Z,980.0
2017-12-12T00:43:20.928Z,980.0
2017-12-12T00:44:22.327Z,980.1
2017-12-12T00:45:23.748Z,980.1
2017-12-12T00:46:25.147Z,980.2
2017-12-12T00:47:26.547Z,980.2
2017-12-12T00:48:27.970Z,980.3
2017-12-12T00:49:29.363Z,980.3
2017-12-12T00:50:30.849Z,980.4
2017-12-12T00:51:32.250Z,980.4
2017-12-12T00:52:33.728Z,980.4
2017-12-12T00:53:35.124Z,980.4
2017-12-12T00:54:36.610Z,980.5
2017-12-12T00:55:38.008Z,980.5
2017-12-12T00:56:39.489Z,980.6
2017-12-12T00:57:40.913Z,980.6
2017-12-12T00:58:42.408Z,980.6
2017-12-12T00:59:43.802Z,980.6
2017-12-12T01:00:45.253Z,980.6
2017-12-12T01:01:46.657Z,980.7
2017-12-12T01:02:48.131Z,980.8
2017-12-12T01:03:49.532Z,980.9
2017-12-12T01:04:51.021Z,980.9
2017-12-12T01:05:52.412Z,981.0
2017-12-12T01:06:53.892Z,980.9
2017-12-12T01:07:55.289Z,981.0
2017-12-12T01:08:56.776Z,981.1
2017-12-12T01:09:58.190Z,981.1
2017-12-12T01:10:59.673Z,981.2
2017-12-12T01:12:01.080Z,981.2
2017-12-12T01:13:02.480Z,981.2
2017-12-12T01:14:03.989Z,981.3
2017-12-12T01:15:05.384Z,981.2
2017-12-12T01:16:06.780Z,981.3
2017-12-12T01:17:08.207Z,981.3
2017-12-12T01:18:09.616Z,981.4
2017-12-12T01:19:11.082Z,981.3
2017-12-12T01:20:12.470Z,981.4
2017-12-12T01:21:13.961Z,981.5
2017-12-12T01:22:15.357Z,981.5
2017-12-12T01:23:16.763Z,981.5
2017-12-12T01:24:18.185Z,981.6
2017-12-12T01:25:19.593Z,981.6
2017-12-12T01:26:20.989Z,981.7
2017-12-12T01:27:22.498Z,981.8
2017-12-12T01:28:23.891Z,981.8
2017-12-12T01:29:25.396Z,981.9
2017-12-12T01:30:26.792Z,981.8
2017-12-12T01:31:28.259Z,981.8
2017-12-12T01:32:29.657Z,981.9
2017-12-12T01:33:31.053Z,981.9
2017-12-12T01:34:32.479Z,981.9
2017-12-12T01:35:33.878Z,981.9
2017-12-12T01:36:35.271Z,982.1
2017-12-12T01:37:36.697Z,982.1
2017-12-12T01:38:38.091Z,982.1
2017-12-12T01:39:39.578Z,982.1
2017-12-12T01:40:40.975Z,982.2
2017-12-12T01:41:42.470Z,982.3
2017-12-12T01:42:43.851Z,982.3
2017-12-12T01:43:45.341Z,982.3
2017-12-12T01:44:46.732Z,982.3
2017-12-12T01:45:48.224Z,982.4
2017-12-12T01:46:49.613Z,982.4
2017-12-12T01:47:51.102Z,982.4
2017-12-12T01:48:52.493Z,982.4
2017-12-12T01:49:53.981Z,982.5
2017-12-12T01:50:55.377Z,982.6
2017-12-12T01:51:56.877Z,982.7
2017-12-12T01:52:58.274Z,982.7
2017-12-12T01:53:59.693Z,982.7
2017-12-12T01:55:01.199Z,982.7
2017-12-12T01:56:02.595Z,982.8
2017-12-12T01:57:03.987Z,982.9
2017-12-12T01:58:05.430Z,982.9
2017-12-12T01:59:06.826Z,982.9
2017-12-12T02:00:08.279Z,983.0
2017-12-12T02:01:09.676Z,983.0
2017-12-12T02:02:11.072Z,983.1
2017-12-12T02:03:12.502Z,983.2
2017-12-12T02:04:13.892Z,983.2
2017-12-12T02:05:15.284Z,983.2
2017-12-12T02:06:16.718Z,983.4
2017-12-12T02:07:18.117Z,983.4
2017-12-12T02:08:19.511Z,983.4
2017-12-12T02:09:20.936Z,983.4
2017-12-12T02:10:22.360Z,983.6
2017-12-12T02:11:23.754Z,983.5
2017-12-12T02:12:25.260Z,983.6
2017-12-12T02:13:26.653Z,983.6
2017-12-12T02:14:28.138Z,983.6
2017-12-12T02:15:29.538Z,983.7
2017-12-12T02:16:31.018Z,983.7
2017-12-12T02:17:32.431Z,983.8
2017-12-12T02:18:33.908Z,983.9
2017-12-12T02:19:35.298Z,983.9
2017-12-12T02:20:36.782Z,983.9
2017-12-12T02:21:38.177Z,984.0
2017-12-12T02:22:39.695Z,984.0
2017-12-12T02:23:41.090Z,984.1
2017-12-12T02:24:42.927Z,984.1
2017-12-12T02:25:44.321Z,984.2
2017-12-12T02:26:45.731Z,984.3
2017-12-12T02:27:47.125Z,984.3
2017-12-12T02:28:48.624Z,984.4
2017-12-12T02:29:50.015Z,984.4
2017-12-12T02:30:51.511Z,984.4
2017-12-12T02:31:52.908Z,984.5
2017-12-12T02:32:54.383Z,984.5
2017-12-12T02:33:55.773Z,984.6
2017-12-12T02:34:57.253Z,984.7
2017-12-12T02:35:58.661Z,984.7
2017-12-12T02:37:00.132Z,984.8
2017-12-12T02:38:01.530Z,984.8
2017-12-12T02:39:03.030Z,984.8
2017-12-12T02:40:04.439Z,984.9
2017-12-12T02:41:05.896Z,984.8
2017-12-12T02:42:07.293Z,985.0
2017-12-12T02:43:08.688Z,985.0
2017-12-12T02:44:10.115Z,985.1
2017-12-12T02:45:11.524Z,985.0
2017-12-12T02:46:12.917Z,985.0
2017-12-12T02:47:14.334Z,985.1
2017-12-12T02:48:15.729Z,985.1
2017-12-12T02:49:17.129Z,985.1
2017-12-12T02:50:18.556Z,985.1
2017-12-12T02:51:19.953Z,985.2
2017-12-12T02:52:21.351Z,985.3
2017-12-12T02:53:22.795Z,985.4
2017-12-12T02:54:24.200Z,985.3
2017-12-12T02:55:25.593Z,985.4
2017-12-12T02:56:27.091Z,985.4
2017-12-12T02:57:28.488Z,985.4
2017-12-12T02:58:29.887Z,985.5
2017-12-12T02:59:31.310Z,985.6
2017-12-12T03:00:32.707Z,985.6
2017-12-12T03:01:34.107Z,985.7
2017-12-12T03:02:35.528Z,985.8
2017-12-12T03:03:36.928Z,985.8
2017-12-12T03:04:38.444Z,985.8
2017-12-12T03:05:39.829Z,985.9
2017-12-12T03:06:41.303Z,985.9
2017-12-12T03:07:42.704Z,985.9
2017-12-12T03:08:44.170Z,985.9
2017-12-12T03:09:45.565Z,985.9
2017-12-12T03:10:47.049Z,986.1
2017-12-12T03:11:48.448Z,986.0
2017-12-12T03:12:49.954Z,986.1
2017-12-12T03:13:51.351Z,986.0
2017-12-12T03:14:52.827Z,986.1
2017-12-12T03:15:54.221Z,986.2
2017-12-12T03:16:55.700Z,986.2
2017-12-12T03:17:57.102Z,986.3
2017-12-12T03:18:58.512Z,986.3
2017-12-12T03:20:00.016Z,986.4
2017-12-12T03:21:01.410Z,986.4
2017-12-12T03:22:02.820Z,986.4
2017-12-12T03:23:04.233Z,986.4
2017-12-12T03:24:05.634Z,986.5
2017-12-12T03:25:07.114Z,986.6
2017-12-12T03:26:08.510Z,986.6
2017-12-12T03:27:09.996Z,986.6
2017-12-12T03:28:11.393Z,986.7
2017-12-12T03:29:12.878Z,986.7
2017-12-12T03:30:14.272Z,986.7
2017-12-12T03:31:15.774Z,986.7
2017-12-12T03:32:17.165Z,986.8
2017-12-12T03:33:18.637Z,986.8
2017-12-12T03:34:20.037Z,986.8
2017-12-12T03:35:21.518Z,986.9
2017-12-12T03:36:22.916Z,987.0
2017-12-12T03:37:24.400Z,987.0
2017-12-12T03:38:25.797Z,987.1
2017-12-12T03:39:27.280Z,987.1
2017-12-12T03:40:28.678Z,987.1
2017-12-12T03:41:30.160Z,987.2
2017-12-12T03:42:31.558Z,987.3
2017-12-12T03:43:33.047Z,987.4
2017-12-12T03:44:34.444Z,987.4
2017-12-12T03:45:35.840Z,987.4
2017-12-12T03:46:37.283Z,987.4
2017-12-12T03:47:38.680Z,987.4
2017-12-12T03:48:40.075Z,987.5
2017-12-12T03:49:41.580Z,987.5
2017-12-12T03:50:42.979Z,987.6
2017-12-12T03:51:44.463Z,987.6
2017-12-12T03:52:45.858Z,987.7
2017-12-12T03:53:47.376Z,987.8
2017-12-12T03:54:48.788Z,987.8
2017-12-12T03:55:50.183Z,987.8
2017-12-12T03:56:51.664Z,987.8
2017-12-12T03:57:53.061Z,987.9
2017-12-12T03:58:54.456Z,987.9
2017-12-12T03:59:55.884Z,987.9
2017-12-12T04:00:57.279Z,988.1
2017-12-12T04:01:58.675Z,988.1
2017-12-12T04:03:00.141Z,988.1
2017-12-12T04:04:01.539Z,988.2
2017-12-12T04:05:02.939Z,988.2
2017-12-12T04:06:04.428Z,988.3
2017-12-12T04:07:05.824Z,988.3
2017-12-12T04:08:07.303Z,988.3
2017-12-12T04:09:08.698Z,988.2
2017-12-12T04:10:10.223Z,988.3
2017-12-12T04:11:11.623Z,988.3
2017-12-12T04:12:13.064Z,988.4
2017-12-12T04:13:14.462Z,988.4
2017-12-12T04:14:15.869Z,988.4
2017-12-12T04:15:17.284Z,988.4
2017-12-12T04:16:18.672Z,988.6
2017-12-12T04:17:20.076Z,988.6
2017-12-12T04:18:21.501Z,988.6
2017-12-12T04:19:22.900Z,988.6
2017-12-12T04:20:24.302Z,988.6
2017-12-12T04:21:25.721Z,988.7
2017-12-12T04:22:27.114Z,988.8
2017-12-12T04:23:28.602Z,988.7
2017-12-12T04:24:30.001Z,988.8
2017-12-12T04:25:31.482Z,988.8
2017-12-12T04:26:33.079Z,988.9
2017-12-12T04:27:34.743Z,988.9
2017-12-12T04:28:36.168Z,989.0
2017-12-12T04:29:37.861Z,989.1
2017-12-12T04:30:39.297Z,989.0
2017-12-12T04:31:40.760Z,989.1
2017-12-12T04:32:42.156Z,989.2
2017-12-12T04:33:43.620Z,989.2
2017-12-12T04:34:45.016Z,989.3
2017-12-12T04:35:46.422Z,989.2
2017-12-12T04:36:47.869Z,989.4
2017-12-12T04:37:49.262Z,989.4
2017-12-12T04:38:50.686Z,989.4
2017-12-12T04:39:52.160Z,989.4
2017-12-12T04:40:53.560Z,989.5
2017-12-12T04:41:54.954Z,989.5
2017-12-12T04:42:56.380Z,989.6
2017-12-12T04:43:57.773Z,989.7
2017-12-12T04:44:59.170Z,989.7
2017-12-12T04:46:00.598Z,989.7
2017-12-12T04:47:01.995Z,989.8
2017-12-12T04:48:03.392Z,989.8
2017-12-12T04:49:04.826Z,989.9
2017-12-12T04:50:06.228Z,990.0
2017-12-12T04:51:07.633Z,990.1
2017-12-12T04:52:09.072Z,990.1
2017-12-12T04:53:10.467Z,990.2
2017-12-12T04:54:11.864Z,990.1
2017-12-12T04:55:13.363Z,990.2
2017-12-12T04:56:14.769Z,990.3
2017-12-12T04:57:16.149Z,990.3
2017-12-12T04:58:17.605Z,990.2
2017-12-12T04:59:19.004Z,990.3
2017-12-12T05:00:20.398Z,990.3
2017-12-12T05:01:21.898Z,990.3
2017-12-12T05:02:23.316Z,990.4
2017-12-12T05:03:24.722Z,990.3
2017-12-12T05:04:26.220Z,990.5
2017-12-12T05:05:27.619Z,990.4
2017-12-12T05:06:29.125Z,990.5
2017-12-12T05:07:30.519Z,990.5
2017-12-12T05:08:31.994Z,990.6
2017-12-12T05:09:33.410Z,990.6
2017-12-12T05:10:34.807Z,990.6
2017-12-12T05:11:36.307Z,990.6
2017-12-12T05:12:37.715Z,990.7
2017-12-12T05:13:39.574Z,990.7
2017-12-12T05:14:41.034Z,990.7
2017-12-12T05:15:42.433Z,990.8
2017-12-12T05:16:43.911Z,990.8
2017-12-12T05:17:45.307Z,990.8
2017-12-12T05:18:46.792Z,990.8
2017-12-12T05:19:48.633Z,990.9
2017-12-12T05:20:50.085Z,990.9
2017-12-12T05:21:51.482Z,990.9
2017-12-12T05:22:52.979Z,990.9
2017-12-12T05:23:54.432Z,990.9
2017-12-12T05:24:55.839Z,991.0
2017-12-12T05:25:57.776Z,991.1
2017-12-12T05:26:59.173Z,991.1
2017-12-12T05:28:00.570Z,991.2
2017-12-12T05:29:02.017Z,991.2
2017-12-12T05:30:03.411Z,991.2
2017-12-12T05:31:04.806Z,991.3
2017-12-12T05:32:06.423Z,991.4
2017-12-12T05:33:07.857Z,991.5
2017-12-12T05:34:10.063Z,991.4
2017-12-12T05:35:11.488Z,991.5
2017-12-12T05:36:13.301Z,991.5
2017-12-12T05:37:14.697Z,991.5
2017-12-12T05:38:16.226Z,991.6
2017-12-12T05:39:17.620Z,991.7
2017-12-12T05:40:19.017Z,991.7
2017-12-12T05:41:20.425Z,991.7
2017-12-12T05:42:21.820Z,991.7
2017-12-12T05:43:23.219Z,991.8
2017-12-12T05:44:24.644Z,991.8
2017-12-12T05:45:26.043Z,991.7
2017-12-12T05:46:27.435Z,991.8
2017-12-12T05:47:28.864Z,991.9
2017-12-12T05:48:30.259Z,991.9
2017-12-12T05:49:31.689Z,991.9
2017-12-12T05:50:33.216Z,991.9
2017-12-12T05:51:34.614Z,991.9
2017-12-12T05:52:36.089Z,992.0
2017-12-12T05:53:37.583Z,992.0
2017-12-12T05:54:39.048Z,991.9
2017-12-12T05:55:40.442Z,992.0
2017-12-12T05:56:41.851Z,992.1
2017-12-12T05:57:43.266Z,992.2
2017-12-12T05:58:44.666Z,992.2
2017-12-12T05:59:46.063Z,992.1
2017-12-12T06:00:47.486Z,992.2
2017-12-12T06:01:48.881Z,992.2
2017-12-12T06:02:50.368Z,992.2
2017-12-12T06:03:51.761Z,992.3
2017-12-12T06:04:53.250Z,992.2
2017-12-12T06:05:54.644Z,992.2
2017-12-12T06:06:56.042Z,992.3
2017-12-12T06:07:57.464Z,992.3
2017-12-12T06:08:58.862Z,992.4
2017-12-12T06:10:00.260Z,992.5
2017-12-12T06:11:01.686Z,992.5
2017-12-12T06:12:03.115Z,992.5
2017-12-12T06:13:04.578Z,992.5
2017-12-12T06:14:05.965Z,992.5
2017-12-12T06:15:07.445Z,992.6
2017-12-12T06:16:08.838Z,992.5
2017-12-12T06:17:10.236Z,992.6
2017-12-12T06:18:11.666Z,992.6
2017-12-12T06:19:13.088Z,992.6
2017-12-12T06:20:14.482Z,992.7
2017-12-12T06:21:15.989Z,992.7
2017-12-12T06:22:17.388Z,992.8
2017-12-12T06:23:18.867Z,992.8
2017-12-12T06:24:20.269Z,992.8
2017-12-12T06:25:21.749Z,992.9
2017-12-12T06:26:23.143Z,992.8
2017-12-12T06:27:24.544Z,992.9
2017-12-12T06:28:25.967Z,992.9
2017-12-12T06:29:27.363Z,992.9
2017-12-12T06:30:28.757Z,992.9
2017-12-12T06:31:30.186Z,993.0
2017-12-12T06:32:31.578Z,993.0
2017-12-12T06:33:33.109Z,993.2
2017-12-12T06:34:34.464Z,993.2
2017-12-12T06:35:35.860Z,993.2
2017-12-12T06:36:37.284Z,993.2
2017-12-12T06:37:38.676Z,993.3
2017-12-12T06:38:40.074Z,993.3
2017-12-12T06:39:41.512Z,993.4
2017-12-12T06:40:42.907Z,993.5
2017-12-12T06:41:44.301Z,993.4
2017-12-12T06:42:45.722Z,993.4
2017-12-12T06:43:47.117Z,993.5
2017-12-12T06:44:48.598Z,993.5
2017-12-12T06:45:50.029Z,993.5
2017-12-12T06:46:51.484Z,993.6
2017-12-12T06:47:52.878Z,993.6
2017-12-12T06:48:54.367Z,993.7
2017-12-12T06:49:55.766Z,993.7
2017-12-12T06:50:57.245Z,993.7
2017-12-12T06:51:58.641Z,993.7
2017-12-12T06:53:00.129Z,993.7
2017-12-12T06:54:01.518Z,993.8
2017-12-12T06:55:03.019Z,993.8
2017-12-12T06:56:04.419Z,993.8
2017-12-12T06:57:05.816Z,993.9
2017-12-12T06:58:07.225Z,993.9
2017-12-12T06:59:08.998Z,993.9
2017-12-12T07:00:10.400Z,994.0
2017-12-12T07:01:12.242Z,994.1
2017-12-12T07:02:13.642Z,994.0
2017-12-12T07:03:15.039Z,994.1
2017-12-12T07:04:16.489Z,994.1
2017-12-12T07:05:17.884Z,994.1
2017-12-12T07:06:19.278Z,994.1
2017-12-12T07:07:20.704Z,994.1
2017-12-12T07:08:22.101Z,994.1
2017-12-12T07:09:23.499Z,994.2
2017-12-12T07:10:24.919Z,994.1
2017-12-12T07:11:26.319Z,994.2
2017-12-12T07:12:27.713Z,994.3
2017-12-12T07:13:29.141Z,994.2
2017-12-12T07:14:30.538Z,994.4
2017-12-12T07:15:32.019Z,994.4
2017-12-12T07:16:33.421Z,994.5
2017-12-12T07:17:34.816Z,994.5
2017-12-12T07:18:36.258Z,994.6
2017-12-12T07:19:37.656Z,994.6
2017-12-12T07:20:39.050Z,994.6
2017-12-12T07:21:41.586Z,994.6
2017-12-12T07:22:42.980Z,994.7
2017-12-12T07:23:44.380Z,994.7
2017-12-12T07:24:45.810Z,994.7
2017-12-12T07:25:47.201Z,994.8
2017-12-12T07:26:48.625Z,994.8
2017-12-12T07:27:50.149Z,994.8
2017-12-12T07:28:51.535Z,994.8
2017-12-12T07:29:53.004Z,994.9
2017-12-12T07:30:54.419Z,994.9
2017-12-12T07:31:55.882Z,995.0
2017-12-12T07:32:57.287Z,995.0
2017-12-12T07:33:58.771Z,995.0
2017-12-12T07:35:00.176Z,995.2
2017-12-12T07:36:01.650Z,995.1
2017-12-12T07:37:03.062Z,995.2
2017-12-12T07:38:05.321Z,995.2
2017-12-12T07:39:06.747Z,995.2
2017-12-12T07:40:08.238Z,995.2
2017-12-12T07:41:09.636Z,995.2
2017-12-12T07:42:11.512Z,995.2
2017-12-12T07:43:12.917Z,995.3
2017-12-12T07:44:14.403Z,995.4
2017-12-12T07:45:15.802Z,995.4
2017-12-12T07:46:17.280Z,995.4
2017-12-12T07:47:18.676Z,995.4
2017-12-12T07:48:20.161Z,995.4
2017-12-12T07:49:21.559Z,995.5
2017-12-12T07:50:23.043Z,995.4
2017-12-12T07:51:24.444Z,995.5
2017-12-12T07:52:25.847Z,995.5
2017-12-12T07:53:27.263Z,995.5
2017-12-12T07:54:28.665Z,995.6
2017-12-12T07:55:30.066Z,995.6
2017-12-12T07:56:31.482Z,995.6
2017-12-12T07:57:32.880Z,995.7
2017-12-12T07:58:34.312Z,995.6
2017-12-12T07:59:35.799Z,995.7
2017-12-12T08:00:37.200Z,995.7
2017-12-12T08:01:38.602Z,995.8
2017-12-12T08:02:40.099Z,995.8
2017-12-12T08:03:41.495Z,995.8
2017-12-12T08:04:43.005Z,995.8
2017-12-12T08:05:44.404Z,995.8
2017-12-12T08:06:45.884Z,995.8
2017-12-12T08:07:47.285Z,996.0
2017-12-12T08:08:48.768Z,995.9
2017-12-12T08:09:50.166Z,995.9
2017-12-12T08:10:51.646Z,996.0
2017-12-12T08:11:53.047Z,996.0
2017-12-12T08:12:54.449Z,996.0
2017-12-12T08:13:55.866Z,995.9
2017-12-12T08:14:57.265Z,996.1
2017-12-12T08:15:58.669Z,996.1
2017-12-12T08:17:00.084Z,996.2
2017-12-12T08:18:01.485Z,996.2
2017-12-12T08:19:02.884Z,996.3
2017-12-12T08:20:04.303Z,996.2
2017-12-12T08:21:05.706Z,996.3
2017-12-12T08:22:07.108Z,996.4
2017-12-12T08:23:08.523Z,996.3
2017-12-12T08:24:09.920Z,996.4
2017-12-12T08:25:11.317Z,996.4
2017-12-12T08:26:12.740Z,996.4
2017-12-12T08:27:14.140Z,996.4
2017-12-12T08:28:15.543Z,996.4
2017-12-12T08:29:17.060Z,996.5
2017-12-12T08:30:18.462Z,996.5
2017-12-12T08:31:19.862Z,996.5
2017-12-12T08:32:21.281Z,996.5
2017-12-12T08:33:22.706Z,996.6
2017-12-12T08:34:24.163Z,996.6
2017-12-12T08:35:25.559Z,996.5
2017-12-12T08:36:27.043Z,996.6
2017-12-12T08:37:28.447Z,996.6
2017-12-12T08:38:29.847Z,996.6
2017-12-12T08:39:31.269Z,996.7
2017-12-12T08:40:32.735Z,996.8
2017-12-12T08:41:34.189Z,996.8
2017-12-12T08:42:35.735Z,996.8
2017-12-12T08:43:37.190Z,996.8
2017-12-12T08:44:38.685Z,996.9
2017-12-12T08:45:40.132Z,996.9
2017-12-12T08:46:41.578Z,996.9
2017-12-12T08:47:43.054Z,997.0
2017-12-12T08:48:44.539Z,997.0
2017-12-12T08:49:45.938Z,997.0
2017-12-12T08:50:47.452Z,997.0
2017-12-12T08:51:48.954Z,997.1
2017-12-12T08:52:50.356Z,997.1
2017-12-12T08:53:51.755Z,997.0
2017-12-12T08:54:53.173Z,997.1
2017-12-12T08:55:54.597Z,997.2
2017-12-12T08:56:56.000Z,997.2
2017-12-12T08:57:57.497Z,997.1
2017-12-12T08:58:58.901Z,997.2
2017-12-12T09:00:00.375Z,997.3
2017-12-12T09:01:01.787Z,997.3
2017-12-12T09:02:03.263Z,997.3
2017-12-12T09:03:04.653Z,997.4
2017-12-12T09:04:06.055Z,997.5
2017-12-12T09:05:07.477Z,997.4
2017-12-12T09:06:08.878Z,997.5
2017-12-12T09:07:10.278Z,997.5
2017-12-12T09:08:11.702Z,997.5
2017-12-12T09:09:13.097Z,997.5
2017-12-12T09:10:14.574Z,997.6
2017-12-12T09:11:16.001Z,997.6
2017-12-12T09:12:17.466Z,997.7
2017-12-12T09:13:18.919Z,997.7
2017-12-12T09:14:20.336Z,997.6
2017-12-12T09:15:21.736Z,997.7
2017-12-12T09:16:23.216Z,997.7
2017-12-12T09:17:24.617Z,997.6
2017-12-12T09:18:26.097Z,997.7
2017-12-12T09:19:27.497Z,997.7
2017-12-12T09:20:28.976Z,997.7
2017-12-12T09:21:30.380Z,997.8
2017-12-12T09:22:31.867Z,997.7
2017-12-12T09:23:33.255Z,997.8
2017-12-12T09:24:34.674Z,997.8
2017-12-12T09:25:36.080Z,997.8
2017-12-12T09:26:37.546Z,997.9
2017-12-12T09:27:38.940Z,997.9
2017-12-12T09:28:40.425Z,998.0
2017-12-12T09:29:41.817Z,998.0
2017-12-12T09:30:43.259Z,998.0
2017-12-12T09:31:44.722Z,998.0
2017-12-12T09:32:46.128Z,998.1
2017-12-12T09:33:47.537Z,998.1
2017-12-12T09:34:49.045Z,998.1
2017-12-12T09:35:50.444Z,998.1
2017-12-12T09:36:51.923Z,998.2
2017-12-12T09:37:53.323Z,998.2
2017-12-12T09:38:54.804Z,998.3
2017-12-12T09:39:56.207Z,998.3
2017-12-12T09:40:57.718Z,998.5
2017-12-12T09:41:59.102Z,998.4
2017-12-12T09:43:00.566Z,998.4
2017-12-12T09:44:01.966Z,998.5
2017-12-12T09:45:03.447Z,998.5
2017-12-12T09:46:04.844Z,998.5
2017-12-12T09:47:06.328Z,998.5
2017-12-12T09:48:07.730Z,998.6
2017-12-12T09:49:09.133Z,998.6
2017-12-12T09:50:10.549Z,998.5
2017-12-12T09:51:11.942Z,998.6
2017-12-12T09:52:13.343Z,998.7
2017-12-12T09:53:14.766Z,998.7
2017-12-12T09:54:16.166Z,998.7
2017-12-12T09:55:17.566Z,998.7
2017-12-12T09:56:18.984Z,998.7
2017-12-12T09:57:20.382Z,998.8
2017-12-12T09:58:21.773Z,998.8
2017-12-12T09:59:23.203Z,998.9
2017-12-12T10:00:24.606Z,998.9
2017-12-12T10:01:26.084Z,999.0
2017-12-12T10:02:27.487Z,998.9
2017-12-12T10:03:28.966Z,999.0
2017-12-12T10:04:30.368Z,999.0
2017-12-12T10:05:31.846Z,998.9
2017-12-12T10:06:33.245Z,999.0
2017-12-12T10:07:34.727Z,999.1
2017-12-12T10:08:36.127Z,999.0
2017-12-12T10:09:37.606Z,999.0
2017-12-12T10:10:39.007Z,999.1
2017-12-12T10:11:40.487Z,999.1
2017-12-12T10:12:41.890Z,999.1
2017-12-12T10:13:43.371Z,999.1
2017-12-12T10:14:44.775Z,999.2
2017-12-12T10:15:46.176Z,999.3
2017-12-12T10:16:47.688Z,999.3
2017-12-12T10:17:49.092Z,999.3
2017-12-12T10:18:50.493Z,999.4
2017-12-12T10:19:51.968Z,999.4
2017-12-12T10:20:53.309Z,999.2
2017-12-12T10:21:54.709Z,999.3
2017-12-12T10:22:56.125Z,999.3
2017-12-12T10:23:57.529Z,999.4
2017-12-12T10:24:58.932Z,999.4
2017-12-12T10:26:00.448Z,999.5
2017-12-12T10:27:01.854Z,999.5
2017-12-12T10:28:03.254Z,999.4
2017-12-12T10:29:04.769Z,999.5
2017-12-12T10:30:06.176Z,999.4
2017-12-12T10:31:07.651Z,999.5
2017-12-12T10:32:09.097Z,999.5
2017-12-12T10:33:10.531Z,999.5
2017-12-12T10:34:11.932Z,999.5
2017-12-12T10:35:13.410Z,999.5
2017-12-12T10:36:14.813Z,999.5
2017-12-12T10:37:16.291Z,999.6
2017-12-12T10:38:17.696Z,999.6
2017-12-12T10:39:19.173Z,999.7
2017-12-12T10:40:20.574Z,999.8
2017-12-12T10:41:22.053Z,999.8
2017-12-12T10:42:23.461Z,999.8
2017-12-12T10:43:24.932Z,999.8
2017-12-12T10:44:26.337Z,999.9
2017-12-12T10:45:27.803Z,999.8
2017-12-12T10:46:29.255Z,999.8
2017-12-12T10:47:30.667Z,999.8
2017-12-12T10:48:32.062Z,999.9
2017-12-12T10:49:33.576Z,999.9
2017-12-12T10:50:34.977Z,999.9
2017-12-12T10:51:36.380Z,1000.0
2017-12-12T10:52:37.900Z,999.9
2017-12-12T10:53:39.301Z,999.9
2017-12-12T10:54:40.709Z,1000.0
2017-12-12T10:55:42.254Z,1000.0
2017-12-12T10:56:43.674Z,999.9
2017-12-12T10:57:45.060Z,999.9
2017-12-12T10:58:46.541Z,999.9
2017-12-12T10:59:47.946Z,999.9
2017-12-12T11:00:49.353Z,999.9
2017-12-12T11:01:50.865Z,1000.0
2017-12-12T11:02:52.284Z,1000.0
2017-12-12T11:03:53.687Z,1000.1
2017-12-12T11:04:55.184Z,1000.1
2017-12-12T11:05:56.590Z,1000.1
2017-12-12T11:06:58.020Z,1000.1
2017-12-12T11:07:59.510Z,1000.2
2017-12-12T11:09:00.922Z,1000.1
2017-12-12T11:10:02.325Z,1000.2
2017-12-12T11:11:03.827Z,1000.2
2017-12-12T11:12:05.233Z,1000.2
2017-12-12T11:13:06.708Z,1000.2
2017-12-12T11:14:08.113Z,1000.3
2017-12-12T11:15:09.588Z,1000.3
2017-12-12T11:16:11.010Z,1000.3
2017-12-12T11:17:12.472Z,1000.3
2017-12-12T11:18:13.875Z,1000.2
2017-12-12T11:19:15.351Z,1000.3
2017-12-12T11:20:16.756Z,1000.4
2017-12-12T11:21:18.159Z,1000.3
2017-12-12T11:22:19.673Z,1000.3
2017-12-12T11:23:21.109Z,1000.3
2017-12-12T11:24:22.516Z,1000.4
2017-12-12T11:25:23.993Z,1000.4
2017-12-12T11:26:25.398Z,1000.4
2017-12-12T11:27:26.806Z,1000.5
2017-12-12T11:28:28.317Z,1000.5
2017-12-12T11:29:29.730Z,1000.5
2017-12-12T11:30:31.131Z,1000.5
2017-12-12T11:31:32.635Z,1000.5
2017-12-12T11:32:34.038Z,1000.5
2017-12-12T11:33:35.540Z,1000.5
2017-12-12T11:34:36.959Z,1000.5
2017-12-12T11:35:38.410Z,1000.4
2017-12-12T11:36:39.863Z,1000.5
2017-12-12T11:37:41.443Z,1000.6
2017-12-12T11:38:42.816Z,1000.5
2017-12-12T11:39:44.292Z,1000.5
2017-12-12T11:40:45.744Z,1000.5
2017-12-12T11:41:47.263Z,1000.5
2017-12-12T11:42:48.687Z,1000.6
2017-12-12T11:43:50.144Z,1000.6
2017-12-12T11:44:51.600Z,1000.6
2017-12-12T11:45:53.047Z,1000.6
2017-12-12T11:46:54.610Z,1000.7
2017-12-12T11:47:56.033Z,1000.6
2017-12-12T11:48:57.898Z,1000.7
2017-12-12T11:49:59.433Z,1000.7
2017-12-12T11:51:00.857Z,1000.8
2017-12-12T11:52:02.307Z,1000.7
2017-12-12T11:53:03.841Z,1000.7
2017-12-12T11:54:05.285Z,1000.7
2017-12-12T11:55:06.713Z,1000.8
2017-12-12T11:56:08.239Z,1000.8
2017-12-12T11:57:09.716Z,1000.8
2017-12-12T11:58:11.339Z,1000.8
2017-12-12T11:59:12.965Z,1000.9
2017-12-12T12:00:14.643Z,1000.9
2017-12-12T12:01:16.280Z,1000.9
2017-12-12T12:02:18.022Z,1001.0
2017-12-12T12:03:19.694Z,1001.0
2017-12-12T12:04:21.305Z,1001.0
2017-12-12T12:05:22.971Z,1001.0
2017-12-12T12:06:24.629Z,1001.1
2017-12-12T12:07:26.379Z,1001.1
2017-12-12T12:08:28.072Z,1001.1
2017-12-12T12:09:29.735Z,1001.1
2017-12-12T12:10:31.417Z,1001.1
2017-12-12T12:11:33.037Z,1001.1
2017-12-12T12:12:34.757Z,1001.1
2017-12-12T12:13:36.386Z,1001.1
2017-12-12T12:14:38.162Z,1001.2
2017-12-12T12:15:39.733Z,1001.1
2017-12-12T12:16:41.394Z,1001.1
2017-12-12T12:17:43.108Z,1001.2
2017-12-12T12:18:44.832Z,1001.1
2017-12-12T12:19:46.427Z,1001.2
2017-12-12T12:20:48.124Z,1001.3
2017-12-12T12:21:49.818Z,1001.3
2017-12-12T12:22:51.623Z,1001.3
2017-12-12T12:23:53.287Z,1001.2
2017-12-12T12:24:54.892Z,1001.3
2017-12-12T12:25:56.328Z,1001.3
2017-12-12T12:26:57.818Z,1001.4
2017-12-12T12:27:59.322Z,1001.4
2017-12-12T12:29:00.773Z,1001.4
2017-12-12T12:30:02.181Z,1001.5
2017-12-12T12:31:03.648Z,1001.4
2017-12-12T12:32:05.053Z,1001.5
2017-12-12T12:33:06.533Z,1001.5
2017-12-12T12:34:07.939Z,1001.5
2017-12-12T12:35:09.413Z,1001.5
2017-12-12T12:36:10.820Z,1001.5
2017-12-12T12:37:12.292Z,1001.5
2017-12-12T12:38:13.697Z,1001.5
2017-12-12T12:39:15.182Z,1001.6
2017-12-12T12:40:16.585Z,1001.6
2017-12-12T12:41:18.068Z,1001.6
2017-12-12T12:42:19.469Z,1001.6
2017-12-12T12:43:20.936Z,1001.5
2017-12-12T12:44:22.349Z,1001.6
2017-12-12T12:45:23.743Z,1001.5
2017-12-12T12:46:25.256Z,1001.6
2017-12-12T12:47:26.660Z,1001.6
2017-12-12T12:48:28.069Z,1001.7
2017-12-12T12:49:29.577Z,1001.6
2017-12-12T12:50:30.979Z,1001.7
2017-12-12T12:51:32.386Z,1001.7
2017-12-12T12:52:33.911Z,1001.7
2017-12-12T12:53:35.383Z,1001.8
2017-12-12T12:54:36.779Z,1001.7
2017-12-12T12:55:38.218Z,1001.8
2017-12-12T12:56:39.624Z,1001.8
2017-12-12T12:57:41.023Z,1001.8
2017-12-12T12:58:43.462Z,1001.8
2017-12-12T12:59:44.865Z,1001.8
2017-12-12T13:00:46.290Z,1001.8
2017-12-12T13:01:47.786Z,1001.9
2017-12-12T13:02:49.195Z,1001.9
2017-12-12T13:03:50.664Z,1001.9
2017-12-12T13:04:52.065Z,1001.9
2017-12-12T13:05:53.545Z,1002.0
2017-12-12T13:06:54.949Z,1001.9